createdAt,value
2023-02-22T00:01:00.279Z,96.18
2023-02-22T00:03:32.539Z,106.55
2023-02-22T00:06:05.405Z,76.78
2023-02-22T00:08:35.781Z,66.78
2023-02-22T00:11:08.795Z,77.78
2023-02-22T00:13:37.278Z,85.03
2023-02-22T00:16:05.117Z,82.80
2023-02-22T00:18:32.127Z,92.72
2023-02-22T00:21:01.160Z,85.97
2023-02-22T00:23:30.876Z,82.78
2023-02-22T00:25:59.525Z,83.85
2023-02-22T00:28:27.062Z,79.63
2023-02-22T00:30:55.200Z,69.55
2023-02-22T00:33:23.383Z,74.20
2023-02-22T00:35:50.470Z,72.63
2023-02-22T00:38:19.868Z,75.03
2023-02-22T00:40:47.092Z,58.38
2023-02-22T00:43:16.924Z,45.25
2023-02-22T00:45:44.285Z,44.42
2023-02-22T00:48:11.502Z,38.88
2023-02-22T00:50:39.420Z,46.55
2023-02-22T00:53:07.927Z,45.13
2023-02-22T00:55:37.823Z,41.63
2023-02-22T00:58:07.149Z,40.35
2023-02-22T01:00:41.818Z,34.65
2023-02-22T01:03:11.646Z,38.92
2023-02-22T01:05:39.449Z,37.03
2023-02-22T01:08:08.804Z,46.85
2023-02-22T01:10:37.460Z,141.43
2023-02-22T01:13:09.415Z,167.95
2023-02-22T01:15:40.383Z,116.10
2023-02-22T01:18:08.663Z,114.27
2023-02-22T01:20:35.921Z,95.53
2023-02-22T01:23:07.993Z,102.63
2023-02-22T01:25:36.056Z,80.63
2023-02-22T01:28:05.132Z,71.85
2023-02-22T01:30:35.444Z,66.13
2023-02-22T01:33:05.057Z,120.47
2023-02-22T01:35:35.965Z,86.03
2023-02-22T01:38:03.560Z,86.25
2023-02-22T01:40:35.825Z,80.53
2023-02-22T01:43:19.604Z,75.70
2023-02-22T01:45:58.318Z,81.90
2023-02-22T01:48:38.776Z,74.43
2023-02-22T01:51:12.233Z,60.17
2023-02-22T01:54:02.302Z,52.53
2023-02-22T01:56:33.031Z,71.43
2023-02-22T01:59:03.759Z,65.60
2023-02-22T02:01:31.092Z,60.20
2023-02-22T02:04:00.499Z,50.17
2023-02-22T02:06:31.964Z,56.90
2023-02-22T02:09:43.967Z,57.13
2023-02-22T02:12:14.433Z,59.83
2023-02-22T02:14:44.121Z,59.70
2023-02-22T02:17:18.207Z,65.03
2023-02-22T02:20:07.454Z,70.60
2023-02-22T02:22:43.759Z,59.20
2023-02-22T02:26:10.128Z,70.20
2023-02-22T02:29:07.140Z,59.97
2023-02-22T02:31:53.241Z,55.13
2023-02-22T02:34:42.116Z,49.00
2023-02-22T02:37:18.334Z,56.67
2023-02-22T02:40:11.790Z,52.60
2023-02-22T02:42:51.739Z,46.83
2023-02-22T02:45:26.920Z,50.20
2023-02-22T02:47:58.998Z,48.40
2023-02-22T02:50:32.346Z,45.23
2023-02-22T02:53:05.960Z,40.47
2023-02-22T02:55:36.847Z,35.43
2023-02-22T02:58:08.645Z,32.37
2023-02-22T03:00:41.396Z,49.37
2023-02-22T03:03:27.475Z,38.00
2023-02-22T03:06:06.769Z,47.03
2023-02-22T03:08:45.396Z,51.55
2023-02-22T03:11:20.174Z,55.77
2023-02-22T03:14:03.174Z,60.10
2023-02-22T03:16:52.421Z,56.60
2023-02-22T03:19:33.482Z,63.00
2023-02-22T03:22:04.338Z,52.23
2023-02-22T03:24:37.649Z,47.37
2023-02-22T03:27:15.726Z,39.03
2023-02-22T03:29:51.404Z,40.33
2023-02-22T03:32:23.856Z,44.13
2023-02-22T03:35:03.108Z,39.47
2023-02-22T03:37:35.439Z,35.87
2023-02-22T03:40:16.160Z,46.77
2023-02-22T03:42:51.338Z,40.20
2023-02-22T03:45:25.492Z,39.80
2023-02-22T03:48:03.734Z,39.50
2023-02-22T03:50:35.906Z,35.37
2023-02-22T03:53:05.678Z,37.57
2023-02-22T03:55:35.966Z,31.67
2023-02-22T03:58:10.552Z,36.00
2023-02-22T04:00:39.141Z,35.63
2023-02-22T04:03:06.328Z,39.60
2023-02-22T04:05:33.850Z,35.40
2023-02-22T04:08:01.753Z,41.70
2023-02-22T04:10:31.078Z,36.80
2023-02-22T04:12:59.405Z,40.97
2023-02-22T04:15:27.258Z,39.97
2023-02-22T04:18:01.333Z,45.97
2023-02-22T04:20:28.586Z,43.07
2023-02-22T04:22:58.662Z,45.97
2023-02-22T04:25:26.948Z,41.03
2023-02-22T04:27:54.956Z,43.57
2023-02-22T04:30:34.442Z,46.50
2023-02-22T04:33:03.573Z,40.07
2023-02-22T04:35:30.605Z,46.43
2023-02-22T04:37:58.614Z,43.60
2023-02-22T04:40:25.672Z,43.20
2023-02-22T04:42:53.016Z,45.80
2023-02-22T04:45:20.301Z,56.07
2023-02-22T04:47:47.956Z,48.50
2023-02-22T04:50:16.443Z,60.33
2023-02-22T04:52:44.381Z,70.50
2023-02-22T04:55:12.288Z,50.50
2023-02-22T04:57:40.001Z,56.13
2023-02-22T05:00:09.713Z,63.43
2023-02-22T05:02:41.081Z,52.00
2023-02-22T05:05:08.998Z,50.67
2023-02-22T05:07:36.741Z,49.17
2023-02-22T05:10:04.270Z,36.73
2023-02-22T05:12:31.261Z,38.27
2023-02-22T05:14:58.875Z,39.13
2023-02-22T05:17:25.854Z,39.87
2023-02-22T05:19:53.453Z,32.03
2023-02-22T05:22:20.644Z,37.67
2023-02-22T05:24:48.550Z,52.10
2023-02-22T05:27:15.531Z,49.30
2023-02-22T05:29:42.793Z,61.60
2023-02-22T05:32:10.149Z,65.53
2023-02-22T05:34:37.416Z,49.00
2023-02-22T05:37:05.297Z,56.40
2023-02-22T05:39:33.077Z,53.80
2023-02-22T05:42:00.520Z,58.00
2023-02-22T05:44:28.207Z,53.50
2023-02-22T05:46:55.684Z,53.50
2023-02-22T05:49:22.711Z,60.40
2023-02-22T05:51:50.969Z,51.03
2023-02-22T05:54:17.897Z,51.23
2023-02-22T05:56:45.286Z,53.00
2023-02-22T05:59:12.875Z,64.13
2023-02-22T06:01:40.313Z,63.70
2023-02-22T06:04:07.295Z,53.93
2023-02-22T06:06:34.765Z,65.77
2023-02-22T06:09:02.047Z,61.67
2023-02-22T06:11:29.055Z,63.23
2023-02-22T06:13:56.153Z,60.87
2023-02-22T06:16:24.487Z,66.00
2023-02-22T06:18:51.799Z,60.20
2023-02-22T06:21:19.659Z,54.03
2023-02-22T06:23:47.141Z,64.20
2023-02-22T06:26:17.196Z,55.33
2023-02-22T06:28:44.300Z,55.00
2023-02-22T06:31:11.447Z,58.37
2023-02-22T06:33:38.547Z,66.67
2023-02-22T06:36:05.887Z,66.10
2023-02-22T06:38:33.491Z,69.67
2023-02-22T06:41:00.593Z,66.97
2023-02-22T06:43:27.716Z,67.30
2023-02-22T06:45:54.801Z,66.43
2023-02-22T06:48:21.879Z,62.37
2023-02-22T06:50:48.843Z,58.30
2023-02-22T06:53:16.327Z,52.37
2023-02-22T06:55:43.898Z,64.20
2023-02-22T06:58:10.873Z,53.20
2023-02-22T07:00:37.962Z,59.80
2023-02-22T07:03:05.314Z,60.80
2023-02-22T07:05:32.446Z,74.90
2023-02-22T07:08:05.755Z,68.87
2023-02-22T07:10:35.216Z,50.13
2023-02-22T07:13:03.722Z,54.37
2023-02-22T07:15:32.886Z,64.30
2023-02-22T07:18:02.542Z,56.93
2023-02-22T07:20:31.298Z,59.77
2023-02-22T07:22:58.334Z,66.27
2023-02-22T07:25:25.749Z,64.07
2023-02-22T07:27:53.168Z,61.85
2023-02-22T07:30:31.410Z,64.85
2023-02-22T07:33:00.891Z,64.53
2023-02-22T07:35:30.519Z,71.35
2023-02-22T07:37:57.853Z,67.15
2023-02-22T07:40:26.590Z,74.05
2023-02-22T07:43:01.478Z,71.77
2023-02-22T07:45:31.277Z,74.68
2023-02-22T07:47:59.729Z,74.05
2023-02-22T07:50:30.311Z,75.65
2023-02-22T07:52:58.779Z,70.70
2023-02-22T07:55:28.579Z,71.70
2023-02-22T07:57:59.644Z,74.22
2023-02-22T08:00:32.802Z,60.63
2023-02-22T08:03:01.781Z,66.38
2023-02-22T08:05:30.115Z,69.82
2023-02-22T08:07:57.261Z,60.35
2023-02-22T08:10:26.063Z,61.42
2023-02-22T08:12:54.092Z,66.00
2023-02-22T08:15:36.886Z,56.72
2023-02-22T08:18:09.271Z,61.08
2023-02-22T08:20:38.139Z,66.55
2023-02-22T08:23:06.822Z,51.97
2023-02-22T08:25:34.506Z,54.97
2023-02-22T08:28:05.741Z,54.53
2023-02-22T08:30:35.167Z,52.63
2023-02-22T08:33:03.435Z,60.72
2023-02-22T08:35:32.673Z,59.15
2023-02-22T08:38:04.672Z,69.65
2023-02-22T08:40:35.473Z,58.17
2023-02-22T08:43:03.685Z,67.50
2023-02-22T08:45:31.112Z,61.10
2023-02-22T08:47:59.704Z,53.35
2023-02-22T08:50:35.918Z,57.35
2023-02-22T08:53:05.380Z,66.88
2023-02-22T08:55:35.091Z,68.60
2023-02-22T08:58:03.334Z,77.95
2023-02-22T09:00:33.525Z,73.18
2023-02-22T09:03:02.162Z,71.18
2023-02-22T09:05:31.430Z,78.57
2023-02-22T09:07:59.396Z,91.15
2023-02-22T09:10:30.319Z,79.28
2023-02-22T09:13:01.082Z,77.50
2023-02-22T09:15:29.590Z,80.13
2023-02-22T09:17:57.293Z,74.22
2023-02-22T09:20:25.163Z,69.90
2023-02-22T09:22:52.872Z,70.75
2023-02-22T09:25:23.096Z,69.68
2023-02-22T09:27:52.151Z,68.20
2023-02-22T09:30:32.472Z,68.97
2023-02-22T09:33:06.386Z,56.88
2023-02-22T09:35:36.587Z,75.13
2023-02-22T09:38:06.524Z,68.93
2023-02-22T09:40:41.241Z,60.95
2023-02-22T09:43:21.555Z,72.53
2023-02-22T09:46:13.871Z,75.72
2023-02-22T09:49:03.554Z,63.45
2023-02-22T09:51:42.409Z,68.70
2023-02-22T09:54:34.462Z,60.42
2023-02-22T09:57:08.901Z,57.17
2023-02-22T09:59:48.766Z,59.05
2023-02-22T10:02:36.150Z,58.00
2023-02-22T10:05:14.111Z,52.05
2023-02-22T10:07:48.090Z,50.28
2023-02-22T10:10:19.624Z,50.28
2023-02-22T10:12:59.048Z,60.55
2023-02-22T10:15:51.847Z,50.08
2023-02-22T10:18:46.831Z,52.88
2023-02-22T10:21:22.075Z,51.88
2023-02-22T10:24:14.778Z,51.35
2023-02-22T10:26:45.100Z,45.35
2023-02-22T10:29:19.133Z,37.83
2023-02-22T10:31:52.293Z,50.53
2023-02-22T10:34:25.678Z,51.05
2023-02-22T10:37:08.387Z,46.72
2023-02-22T10:39:39.052Z,58.67
2023-02-22T10:42:08.322Z,51.55
2023-02-22T10:44:37.021Z,52.25
2023-02-22T10:47:11.051Z,59.35
2023-02-22T10:49:46.530Z,51.30
2023-02-22T10:52:22.530Z,49.67
2023-02-22T10:54:52.182Z,38.88
2023-02-22T10:57:32.210Z,44.92
2023-02-22T11:00:15.696Z,32.80
2023-02-22T11:02:53.949Z,37.35
2023-02-22T11:05:30.047Z,49.55
2023-02-22T11:08:21.471Z,35.33
2023-02-22T11:10:54.144Z,33.42
2023-02-22T11:13:30.332Z,27.10
2023-02-22T11:16:27.201Z,26.33
2023-02-22T11:19:03.155Z,30.13
2023-02-22T11:21:32.814Z,23.38
2023-02-22T11:24:08.786Z,22.05
2023-02-22T11:27:01.460Z,23.48
2023-02-22T11:29:34.879Z,21.83
2023-02-22T11:32:13.675Z,37.38
2023-02-22T11:34:42.959Z,21.23
2023-02-22T11:37:33.783Z,26.17
2023-02-22T11:40:19.769Z,19.27
2023-02-22T11:42:47.907Z,30.48
2023-02-22T11:45:25.050Z,32.30
2023-02-22T11:47:59.437Z,22.13
2023-02-22T11:50:28.036Z,24.38
2023-02-22T11:53:06.468Z,18.20
2023-02-22T11:55:45.210Z,22.02
2023-02-22T11:58:46.647Z,21.77
2023-02-22T12:01:35.451Z,16.88
2023-02-22T12:04:23.051Z,15.07
2023-02-22T12:06:51.572Z,17.48
2023-02-22T12:09:25.428Z,16.10
2023-02-22T12:12:15.499Z,18.40
2023-02-22T12:15:01.356Z,24.52
2023-02-22T12:17:43.692Z,24.70
2023-02-22T12:20:22.341Z,21.80
2023-02-22T12:23:03.291Z,13.88
2023-02-22T12:25:42.260Z,12.52
2023-02-22T12:28:26.984Z,17.77
2023-02-22T12:31:28.956Z,12.05
2023-02-22T12:34:38.479Z,9.35
2023-02-22T12:37:23.331Z,11.68
2023-02-22T12:40:08.745Z,19.88
2023-02-22T12:43:22.871Z,10.50
2023-02-22T12:46:12.834Z,15.00
2023-02-22T12:48:49.953Z,13.00
2023-02-22T12:54:40.501Z,13.38
2023-02-22T12:57:26.257Z,12.40
2023-02-22T13:00:02.790Z,25.75
2023-02-22T13:06:05.399Z,13.18
2023-02-22T13:08:51.795Z,10.95
2023-02-22T13:11:37.669Z,12.80
2023-02-22T13:14:30.314Z,23.25
2023-02-22T13:17:05.999Z,18.33
2023-02-22T13:19:49.269Z,17.95
2023-02-22T13:22:25.664Z,11.25
2023-02-22T13:24:56.815Z,16.98
2023-02-22T13:27:51.267Z,28.58
2023-02-22T13:30:24.411Z,12.40
2023-02-22T13:33:19.403Z,15.40
2023-02-22T13:35:59.068Z,15.90
2023-02-22T13:38:33.612Z,28.85
2023-02-22T13:41:03.415Z,21.70
2023-02-22T13:43:52.119Z,17.83
2023-02-22T13:46:37.794Z,18.15
2023-02-22T13:49:20.886Z,23.73
2023-02-22T13:52:02.098Z,14.23
2023-02-22T13:55:03.153Z,16.80
2023-02-22T13:57:39.817Z,18.52
2023-02-22T14:00:16.670Z,15.55
2023-02-22T14:03:02.039Z,24.48
2023-02-22T14:05:50.387Z,21.23
2023-02-22T14:08:17.657Z,24.25
2023-02-22T14:10:51.316Z,16.80
2023-02-22T14:13:22.719Z,11.05
2023-02-22T14:16:00.527Z,13.73
2023-02-22T14:18:36.822Z,13.30
2023-02-22T14:21:20.164Z,15.85
2023-02-22T14:23:50.919Z,43.08
2023-02-22T14:26:35.019Z,52.10
2023-02-22T14:29:08.167Z,93.45
2023-02-22T14:31:41.407Z,113.43
2023-02-22T14:34:16.228Z,84.40
2023-02-22T14:37:02.876Z,43.05
2023-02-22T14:39:41.603Z,61.10
2023-02-22T14:42:30.242Z,59.17
2023-02-22T14:45:10.169Z,62.50
2023-02-22T14:47:49.784Z,77.60
2023-02-22T14:50:24.261Z,108.80
2023-02-22T14:53:07.143Z,39.67
2023-02-22T14:55:42.646Z,62.05
2023-02-22T14:58:19.907Z,97.60
2023-02-22T15:00:49.537Z,67.20
2023-02-22T15:03:29.130Z,68.78
2023-02-22T15:05:59.874Z,91.55
2023-02-22T15:08:28.768Z,48.33
2023-02-22T15:10:55.749Z,32.70
2023-02-22T15:13:28.420Z,63.83
2023-02-22T15:16:01.877Z,217.95
2023-02-22T15:19:00.123Z,165.15
2023-02-22T15:21:30.250Z,188.75
2023-02-22T15:24:08.315Z,157.77
2023-02-22T15:27:00.330Z,129.80
2023-02-22T15:29:36.234Z,61.30
2023-02-22T15:32:29.613Z,89.50
2023-02-22T15:35:12.602Z,131.40
2023-02-22T15:37:40.261Z,133.45
2023-02-22T15:40:21.117Z,112.32
2023-02-22T15:42:58.547Z,114.85
2023-02-22T15:45:26.362Z,115.10
2023-02-22T15:47:56.609Z,86.28
2023-02-22T15:50:28.853Z,112.35
2023-02-22T15:53:07.736Z,50.20
2023-02-22T15:55:44.116Z,97.10
2023-02-22T15:58:24.101Z,87.97
2023-02-22T16:01:05.485Z,85.97
2023-02-22T16:03:45.147Z,57.60
2023-02-22T16:06:18.220Z,61.35
2023-02-22T16:08:55.184Z,46.83
2023-02-22T16:11:33.059Z,36.38
2023-02-22T16:14:05.233Z,42.60
2023-02-22T16:16:37.576Z,58.83
2023-02-22T16:19:25.682Z,29.50
2023-02-22T16:21:58.586Z,35.20
2023-02-22T16:24:33.951Z,27.45
2023-02-22T16:27:06.952Z,31.60
2023-02-22T16:29:34.139Z,38.67
2023-02-22T16:32:02.089Z,51.72
2023-02-22T16:34:29.243Z,51.88
2023-02-22T16:36:56.984Z,42.17
2023-02-22T16:39:27.382Z,36.83
2023-02-22T16:41:57.681Z,37.85
2023-02-22T16:44:25.734Z,30.65
2023-02-22T16:47:00.869Z,49.38
2023-02-22T16:49:28.017Z,46.75
2023-02-22T16:51:59.038Z,60.58
2023-02-22T16:54:29.194Z,66.07
2023-02-22T16:57:00.490Z,43.15
2023-02-22T16:59:28.481Z,50.92
2023-02-22T17:01:58.972Z,42.65
2023-02-22T17:04:29.651Z,43.70
2023-02-22T17:06:59.243Z,37.53
2023-02-22T17:09:26.603Z,34.03
2023-02-22T17:11:54.208Z,47.38
2023-02-22T17:14:24.576Z,39.58
2023-02-22T17:16:52.142Z,37.08
2023-02-22T17:19:24.617Z,38.17
2023-02-22T17:21:52.174Z,34.10
2023-02-22T17:24:23.195Z,39.13
2023-02-22T17:26:53.241Z,36.35
2023-02-22T17:29:20.824Z,36.53
2023-02-22T17:31:49.134Z,31.55
2023-02-22T17:34:16.485Z,28.80
2023-02-22T17:36:43.927Z,47.75
2023-02-22T17:39:11.313Z,115.50
2023-02-22T17:41:40.630Z,114.90
2023-02-22T17:44:08.592Z,112.70
2023-02-22T17:46:36.980Z,78.75
2023-02-22T17:49:04.006Z,96.28
2023-02-22T17:51:31.039Z,46.30
2023-02-22T17:53:58.315Z,41.55
2023-02-22T17:56:25.672Z,34.80
2023-02-22T17:58:55.106Z,18.70
2023-02-22T18:01:27.346Z,32.97
2023-02-22T18:03:56.113Z,28.15
2023-02-22T18:06:27.286Z,28.80
2023-02-22T18:08:56.793Z,34.33
2023-02-22T18:11:28.503Z,22.77
2023-02-22T18:13:57.127Z,26.75
2023-02-22T18:16:28.509Z,27.85
2023-02-22T18:18:56.499Z,37.97
2023-02-22T18:21:24.642Z,27.23
2023-02-22T18:23:59.125Z,47.35
2023-02-22T18:26:26.797Z,53.42
2023-02-22T18:28:54.089Z,56.85
2023-02-22T18:31:22.541Z,42.15
2023-02-22T18:33:54.887Z,46.53
2023-02-22T18:36:23.531Z,38.83
2023-02-22T18:38:53.257Z,51.17
2023-02-22T18:41:25.985Z,52.67
2023-02-22T18:43:55.631Z,64.20
2023-02-22T18:46:24.470Z,72.20
2023-02-22T18:48:56.856Z,51.83
2023-02-22T18:51:24.939Z,68.20
2023-02-22T18:53:57.154Z,61.20
2023-02-22T18:56:29.846Z,37.65
2023-02-22T18:59:02.762Z,84.88
2023-02-22T19:01:31.483Z,64.93
2023-02-22T19:04:00.469Z,48.33
2023-02-22T19:06:27.521Z,55.50
2023-02-22T19:08:54.573Z,57.58
2023-02-22T19:11:24.151Z,70.07
2023-02-22T19:13:54.160Z,65.68
2023-02-22T19:16:23.442Z,63.15
2023-02-22T19:18:52.913Z,69.20
2023-02-22T19:21:20.988Z,59.60
2023-02-22T19:23:49.077Z,64.35
2023-02-22T19:26:27.753Z,71.85
2023-02-22T19:28:56.870Z,57.92
2023-02-22T19:31:34.107Z,73.97
2023-02-22T19:34:04.045Z,75.00
2023-02-22T19:36:32.174Z,68.50
2023-02-22T19:39:02.853Z,40.40
2023-02-22T19:41:31.483Z,27.42
2023-02-22T19:43:59.010Z,28.25
2023-02-22T19:46:26.849Z,28.88
2023-02-22T19:48:58.013Z,32.70
2023-02-22T19:51:28.928Z,23.17
2023-02-22T19:54:07.265Z,26.17
2023-02-22T19:56:35.696Z,31.52
2023-02-22T19:59:17.039Z,35.80
2023-02-22T20:01:44.734Z,32.67
2023-02-22T20:04:18.673Z,43.60
2023-02-22T20:06:47.137Z,30.92
2023-02-22T20:09:18.454Z,35.60
2023-02-22T20:11:47.632Z,31.05
2023-02-22T20:14:26.523Z,37.63
2023-02-22T20:16:55.657Z,35.00
2023-02-22T20:19:23.615Z,33.47
2023-02-22T20:21:52.701Z,38.38
2023-02-22T20:24:20.277Z,38.00
2023-02-22T20:26:47.773Z,48.53
2023-02-22T20:29:19.503Z,79.13
2023-02-22T20:31:52.741Z,112.60
2023-02-22T20:34:20.199Z,100.35
2023-02-22T20:36:47.211Z,155.98
2023-02-22T20:39:15.128Z,69.13
2023-02-22T20:41:44.565Z,57.42
2023-02-22T20:44:16.546Z,51.13
2023-02-22T20:46:45.499Z,44.90
2023-02-22T20:49:17.616Z,41.67
2023-02-22T20:51:48.549Z,48.60
2023-02-22T20:54:17.018Z,42.65
2023-02-22T20:56:45.922Z,52.35
2023-02-22T20:59:15.412Z,44.72
2023-02-22T21:01:42.724Z,69.88
2023-02-22T21:04:11.571Z,68.60
2023-02-22T21:06:40.457Z,70.47
2023-02-22T21:09:13.486Z,66.57
2023-02-22T21:11:40.827Z,72.53
2023-02-22T21:14:09.286Z,102.63
2023-02-22T21:16:37.669Z,93.50
2023-02-22T21:19:07.263Z,104.72
2023-02-22T21:21:36.485Z,82.50
2023-02-22T21:24:08.130Z,92.63
2023-02-22T21:26:36.410Z,104.28
2023-02-22T21:29:06.635Z,101.80
2023-02-22T21:31:37.234Z,40.42
2023-02-22T21:34:04.984Z,42.58
2023-02-22T21:36:32.508Z,33.60
2023-02-22T21:39:03.481Z,70.45
2023-02-22T21:41:31.588Z,56.58
2023-02-22T21:43:59.871Z,70.47
2023-02-22T21:46:29.423Z,69.63
2023-02-22T21:48:59.094Z,59.65
2023-02-22T21:51:34.048Z,66.38
2023-02-22T21:54:03.945Z,74.63
2023-02-22T21:56:34.624Z,95.13
2023-02-22T21:59:25.614Z,75.68
2023-02-22T22:01:58.309Z,109.90
2023-02-22T22:04:31.654Z,131.07
2023-02-22T22:07:00.420Z,114.65
2023-02-22T22:09:33.281Z,122.53
2023-02-22T22:12:05.357Z,85.70
2023-02-22T22:14:34.487Z,93.68
2023-02-22T22:17:03.193Z,100.22
2023-02-22T22:19:34.418Z,100.90
2023-02-22T22:22:01.848Z,71.72
2023-02-22T22:24:32.327Z,73.28
2023-02-22T22:27:03.903Z,89.70
2023-02-22T22:29:32.517Z,73.57
2023-02-22T22:32:00.102Z,109.32
2023-02-22T22:34:29.813Z,68.82
2023-02-22T22:36:58.643Z,70.30
2023-02-22T22:39:27.058Z,76.40
2023-02-22T22:41:54.219Z,65.72
2023-02-22T22:44:23.883Z,80.53
2023-02-22T22:46:53.958Z,74.90
2023-02-22T22:49:25.819Z,82.85
2023-02-22T22:51:53.648Z,79.88
2023-02-22T22:54:20.635Z,142.73
2023-02-22T22:56:47.648Z,68.00
2023-02-22T22:59:15.486Z,37.55
2023-02-22T23:01:47.102Z,47.55
2023-02-22T23:04:16.602Z,49.25
2023-02-22T23:06:50.753Z,50.65
2023-02-22T23:09:30.615Z,46.70
2023-02-22T23:12:09.040Z,42.80
2023-02-22T23:14:39.197Z,62.35
2023-02-22T23:17:15.425Z,65.95
2023-02-22T23:19:47.008Z,67.10
2023-02-22T23:22:14.607Z,71.00
2023-02-22T23:24:41.832Z,79.50
2023-02-22T23:27:10.978Z,75.68
2023-02-22T23:29:40.752Z,89.72
2023-02-22T23:32:09.131Z,91.88
2023-02-22T23:34:37.178Z,108.15
2023-02-22T23:37:04.222Z,122.82
2023-02-22T23:39:31.239Z,114.70
2023-02-22T23:42:03.508Z,105.40
2023-02-22T23:44:30.874Z,90.35
2023-02-22T23:46:58.057Z,62.83
2023-02-22T23:49:39.024Z,52.45
2023-02-22T23:52:07.525Z,51.85
2023-02-22T23:54:36.624Z,57.30
2023-02-22T23:57:04.876Z,57.90
2023-02-22T23:59:33.598Z,57.75
